Currently 75°F in Riverside (Presidential Park), California, USA
75°F
75°F / 56°F
calm
0.00"
Saturday, May 2, 2026 1:03 PM PDT

Riverside (Presidential Park), California Weather Summary
Last 36 Hours

Temperature Winds Hourly Humidity Dewpoint
Time Report Norm Report Norm Max Gusts Precip. Rpt. Norm Rpt. Norm Pressure
1Sat 01:03 PM  74.9°F  75°F  calm  5 mph  none  0.00"  53%  41%  56°F  49°F  N/A
2Sat 01:02 PM  75.1°F  75°F  calm  5 mph  none  ----  53%  41%  56°F  49°F  N/A
Sat 01:00 PM  74.5°F  74°F  calm  5 mph  7 mph  0.00"  53%  42%  55°F  49°F  N/A
Sat 12:00 PM  71.1°F  72°F  4 mph SW  4 mph  9 mph  0.00"  62%  46%  57°F  49°F  N/A
Sat 11:00 AM  65.9°F  69°F  4 mph W  4 mph  8 mph  0.00"  74%  52%  57°F  50°F  N/A
Sat 10:00 AM  61.0°F  66°F  1 mph NE  3 mph  5 mph  0.00"  86%  59%  57°F  51°F  N/A
Sat 09:00 AM  59.2°F  63°F  2 mph E  2 mph  4 mph  0.00"  89%  67%  56°F  51°F  N/A
Sat 08:00 AM  59.0°F  59°F  1 mph NW  2 mph  4 mph  0.00"  89%  74%  56°F  51°F  N/A
Sat 07:00 AM  58.4°F  56°F  calm  1 mph  6 mph  0.00"  89%  77%  55°F  49°F  N/A
Sat 06:00 AM  57.2°F  56°F  calm  1 mph  3 mph  0.00"  88%  76%  54°F  48°F  N/A
3Sat 05:25 AM  56.4°F  56°F  calm  1 mph  3 mph  ----  86%  76%  52°F  48°F  N/A
Sat 05:00 AM  56.6°F  57°F  1 mph SE  1 mph  3 mph  0.00"  85%  75%  52°F  49°F  N/A
Sat 04:00 AM  57.4°F  57°F  calm  1 mph  3 mph  0.00"  84%  74%  53°F  49°F  N/A
Sat 03:00 AM  58.9°F  58°F  calm  2 mph  3 mph  0.00"  83%  73%  54°F  49°F  N/A
Sat 02:00 AM  59.8°F  59°F  1 mph SE  2 mph  3 mph  0.00"  81%  71%  54°F  49°F  N/A
Sat 01:00 AM  61.3°F  60°F  1 mph SE  2 mph  4 mph  0.00"  81%  69%  55°F  49°F  N/A
Sat 12:00 AM  62.4°F  61°F  3 mph S  2 mph  4 mph  0.00"  78%  67%  55°F  49°F  N/A
Fri 11:00 PM  64.4°F  62°F  2 mph SW  2 mph  6 mph  0.00"  73%  64%  55°F  49°F  N/A
Fri 10:00 PM  65.8°F  64°F  2 mph SW  3 mph  5 mph  0.00"  69%  60%  55°F  49°F  N/A
Fri 09:00 PM  66.7°F  66°F  calm  3 mph  11 mph  0.00"  66%  55%  55°F  49°F  N/A
Fri 08:00 PM  68.5°F  68°F  4 mph SW  4 mph  12 mph  0.00"  60%  51%  54°F  49°F  N/A
Fri 07:00 PM  74.3°F  71°F  7 mph W  7 mph  11 mph  0.00"  50%  46%  54°F  49°F  N/A
Fri 06:00 PM  77.1°F  74°F  calm  8 mph  none  0.00"  43%  42%  52°F  48°F  N/A
Fri 05:00 PM  80.3°F  75°F  calm  8 mph  none  0.00"  39%  39%  52°F  48°F  N/A
Fri 04:00 PM  79.6°F  76°F  calm  8 mph  none  0.00"  40%  38%  53°F  48°F  N/A
Fri 03:00 PM  78.2°F  77°F  calm  7 mph  none  0.00"  47%  38%  55°F  48°F  N/A
Fri 02:00 PM  74.3°F  76°F  calm  6 mph  none  0.00"  52%  39%  55°F  49°F  N/A
Fri 01:00 PM  70.0°F  74°F  calm  5 mph  10 mph  0.00"  60%  42%  55°F  49°F  N/A
Fri 12:00 PM  66.5°F  72°F  6 mph NW  4 mph  10 mph  0.00"  68%  46%  55°F  49°F  N/A
Fri 11:00 AM  63.2°F  69°F  2 mph W  4 mph  7 mph  0.00"  77%  52%  56°F  50°F  N/A
Fri 10:00 AM  61.3°F  66°F  calm  3 mph  5 mph  0.00"  81%  59%  55°F  51°F  N/A
Fri 09:00 AM  59.6°F  63°F  calm  2 mph  6 mph  0.00"  83%  66%  54°F  51°F  N/A
Fri 08:00 AM  59.4°F  59°F  2 mph S  2 mph  5 mph  0.00"  84%  74%  54°F  50°F  N/A
Fri 07:00 AM  59.0°F  56°F  calm  1 mph  5 mph  0.00"  85%  77%  54°F  49°F  N/A
Fri 06:00 AM  58.9°F  56°F  calm  1 mph  3 mph  0.00"  85%  76%  54°F  48°F  N/A
Fri 05:00 AM  57.7°F  56°F  calm  1 mph  2 mph  0.00"  86%  75%  53°F  48°F  N/A
Fri 04:00 AM  57.6°F  57°F  calm  1 mph  3 mph  0.00"  86%  74%  53°F  48°F  N/A
Fri 03:00 AM  58.1°F  58°F  2 mph SE  2 mph  3 mph  0.00"  83%  73%  53°F  49°F  N/A
Fri 02:00 AM  58.8°F  59°F  calm  2 mph  3 mph  0.00"  83%  71%  53°F  49°F  N/A

  1. Current weather data. No green row appears if the current weather data is also the high or low for the current day.
  2. High temperature for the current day.
  3. Low temperature for the current day.

The Riverside (Presidential Park), California weather pages are a service of WeatherCurrents.
Copyright ©Sat May 02 13:03:59 PDT 2026  WeatherCurrents. All rights reserved. - Submit questions and comments - Privacy Policy

This page automatically refreshes every 10 minutes.